createdAt,value
2017-12-13T00:02:07.531Z,1.67
2017-12-13T00:04:36.077Z,2.73
2017-12-13T00:07:03.908Z,3.05
2017-12-13T00:09:31.726Z,4.30
2017-12-13T00:11:59.478Z,2.23
2017-12-13T00:14:27.225Z,1.80
2017-12-13T00:16:55.024Z,2.00
2017-12-13T00:19:23.547Z,1.73
2017-12-13T00:21:51.335Z,2.37
2017-12-13T00:24:19.098Z,1.70
2017-12-13T00:26:46.880Z,2.13
2017-12-13T00:29:14.668Z,1.50
2017-12-13T00:31:43.211Z,1.80
2017-12-13T00:34:10.949Z,1.83
2017-12-13T00:36:38.735Z,2.40
2017-12-13T00:39:06.493Z,2.40
2017-12-13T00:41:34.269Z,2.03
2017-12-13T00:44:02.024Z,1.97
2017-12-13T00:46:29.823Z,1.27
2017-12-13T00:48:57.659Z,1.60
2017-12-13T00:51:25.491Z,1.93
2017-12-13T00:53:53.328Z,1.50
2017-12-13T00:56:21.941Z,1.60
2017-12-13T00:58:49.719Z,1.30
2017-12-13T01:01:17.486Z,1.67
2017-12-13T01:03:45.353Z,1.40
2017-12-13T01:06:13.191Z,1.30
2017-12-13T01:08:40.939Z,1.37
2017-12-13T01:11:09.500Z,1.40
2017-12-13T01:13:37.276Z,1.30
2017-12-13T01:16:05.059Z,1.47
2017-12-13T01:18:33.656Z,1.60
2017-12-13T01:21:01.499Z,1.50
2017-12-13T01:23:30.027Z,1.53
2017-12-13T01:25:57.785Z,0.93
2017-12-13T01:28:25.540Z,1.43
2017-12-13T01:30:53.367Z,1.43
2017-12-13T01:33:21.871Z,1.20
2017-12-13T01:35:58.477Z,1.10
2017-12-13T01:38:26.260Z,1.80
2017-12-13T01:40:54.139Z,1.40
2017-12-13T01:43:21.913Z,1.03
2017-12-13T01:45:50.503Z,1.57
2017-12-13T01:48:19.093Z,1.27
2017-12-13T01:50:47.660Z,1.40
2017-12-13T01:53:15.448Z,1.70
2017-12-13T01:55:43.239Z,2.00
2017-12-13T01:58:11.008Z,1.27
2017-12-13T02:00:38.839Z,1.90
2017-12-13T02:03:06.807Z,1.53
2017-12-13T02:05:35.476Z,1.53
2017-12-13T02:08:04.047Z,1.50
2017-12-13T02:10:31.871Z,2.13
2017-12-13T02:12:59.717Z,1.50
2017-12-13T02:15:27.516Z,1.27
2017-12-13T02:17:55.280Z,1.73
2017-12-13T02:20:23.061Z,1.70
2017-12-13T02:22:50.852Z,1.80
2017-12-13T02:25:19.463Z,1.57
2017-12-13T02:27:47.334Z,1.33
2017-12-13T02:30:15.121Z,1.50
2017-12-13T02:32:42.858Z,2.03
2017-12-13T02:35:10.629Z,1.70
2017-12-13T02:37:38.397Z,1.63
2017-12-13T02:40:17.815Z,2.03
2017-12-13T02:42:45.598Z,1.97
2017-12-13T02:45:13.444Z,1.60
2017-12-13T02:47:41.202Z,1.60
2017-12-13T02:50:08.979Z,1.87
2017-12-13T02:52:36.743Z,1.73
2017-12-13T02:55:04.571Z,1.60
2017-12-13T02:57:32.410Z,1.40
2017-12-13T03:00:00.315Z,1.60
2017-12-13T03:02:28.887Z,1.53
2017-12-13T03:04:56.738Z,1.42
2017-12-13T03:07:24.544Z,1.40
2017-12-13T03:09:52.335Z,1.17
2017-12-13T03:12:20.199Z,1.00
2017-12-13T03:14:49.733Z,0.90
2017-12-13T03:17:17.499Z,1.50
2017-12-13T03:19:45.315Z,1.03
2017-12-13T03:22:13.080Z,1.60
2017-12-13T03:24:40.844Z,1.13
2017-12-13T03:27:08.610Z,1.17
2017-12-13T03:29:36.391Z,1.40
2017-12-13T03:32:04.251Z,1.00
2017-12-13T03:34:32.078Z,1.30
2017-12-13T03:37:00.692Z,1.17
2017-12-13T03:39:28.500Z,1.47
2017-12-13T03:41:56.320Z,1.23
2017-12-13T03:44:24.123Z,1.23
2017-12-13T03:46:51.991Z,0.90
2017-12-13T03:49:19.856Z,1.20
2017-12-13T03:51:47.719Z,1.23
2017-12-13T03:54:15.612Z,1.53
2017-12-13T03:56:44.160Z,1.30
2017-12-13T03:59:11.962Z,1.20
2017-12-13T04:01:40.565Z,1.03
2017-12-13T04:04:08.368Z,1.07
2017-12-13T04:06:36.262Z,1.40
2017-12-13T04:09:04.304Z,1.83
2017-12-13T04:11:32.103Z,1.07
2017-12-13T04:13:59.922Z,0.98
2017-12-13T04:16:27.737Z,1.20
2017-12-13T04:18:55.686Z,1.17
2017-12-13T04:21:23.524Z,1.27
2017-12-13T04:23:51.357Z,1.97
2017-12-13T04:26:19.205Z,1.70
2017-12-13T04:28:47.754Z,1.47
2017-12-13T04:31:15.553Z,1.43
2017-12-13T04:33:44.144Z,1.10
2017-12-13T04:36:12.735Z,1.57
2017-12-13T04:38:40.543Z,1.30
2017-12-13T04:41:08.352Z,1.20
2017-12-13T04:43:36.998Z,1.80
2017-12-13T04:46:04.826Z,1.20
2017-12-13T04:48:32.662Z,1.53
2017-12-13T04:51:01.320Z,1.43
2017-12-13T04:53:29.175Z,1.27
2017-12-13T04:55:56.987Z,1.10
2017-12-13T04:58:25.556Z,1.40
2017-12-13T05:00:53.492Z,0.93
2017-12-13T05:03:21.297Z,1.00
2017-12-13T05:05:49.923Z,1.70
2017-12-13T05:08:17.788Z,1.73
2017-12-13T05:10:45.762Z,1.80
2017-12-13T05:13:13.604Z,2.47
2017-12-13T05:15:42.224Z,1.30
2017-12-13T05:18:10.056Z,1.73
2017-12-13T05:20:37.929Z,3.90
2017-12-13T05:23:05.764Z,3.00
2017-12-13T05:25:34.396Z,2.80
2017-12-13T05:28:02.231Z,1.60
2017-12-13T05:30:30.165Z,1.30
2017-12-13T05:32:58.752Z,2.53
2017-12-13T05:35:27.304Z,1.70
2017-12-13T05:37:55.181Z,2.70
2017-12-13T05:40:23.155Z,1.60
2017-12-13T05:42:50.980Z,1.70
2017-12-13T05:45:18.778Z,2.03
2017-12-13T05:47:46.647Z,2.47
2017-12-13T05:50:14.435Z,1.50
2017-12-13T05:52:43.058Z,1.70
2017-12-13T05:55:10.906Z,2.17
2017-12-13T05:57:38.798Z,1.50
2017-12-13T06:00:06.692Z,1.57
2017-12-13T06:02:34.480Z,1.43
2017-12-13T06:05:03.054Z,1.80
2017-12-13T06:07:30.902Z,1.90
2017-12-13T06:09:58.811Z,1.20
2017-12-13T06:12:26.718Z,0.97
2017-12-13T06:14:54.568Z,1.30
2017-12-13T06:17:22.423Z,1.67
2017-12-13T06:19:50.284Z,1.30
2017-12-13T06:22:18.864Z,1.00
2017-12-13T06:24:47.462Z,1.57
2017-12-13T06:27:15.264Z,1.37
2017-12-13T06:29:43.054Z,1.50
2017-12-13T06:32:10.889Z,1.80
2017-12-13T06:34:38.697Z,1.30
2017-12-13T06:37:07.422Z,1.40
2017-12-13T06:39:35.342Z,1.57
2017-12-13T06:42:03.934Z,1.57
2017-12-13T06:44:32.567Z,1.90
2017-12-13T06:47:00.375Z,1.27
2017-12-13T06:49:28.155Z,1.27
2017-12-13T06:51:56.759Z,1.67
2017-12-13T06:54:24.581Z,1.93
2017-12-13T06:56:52.451Z,2.20
2017-12-13T06:59:20.289Z,3.30
2017-12-13T07:01:48.083Z,2.50
2017-12-13T07:04:15.896Z,3.07
2017-12-13T07:06:43.717Z,2.20
2017-12-13T07:09:12.275Z,2.10
2017-12-13T07:11:40.171Z,3.00
2017-12-13T07:14:08.780Z,2.17
2017-12-13T07:16:36.605Z,2.30
2017-12-13T07:19:04.465Z,4.00
2017-12-13T07:21:32.294Z,3.57
2017-12-13T07:24:00.094Z,3.10
2017-12-13T07:26:27.936Z,2.10
2017-12-13T07:28:55.754Z,2.10
2017-12-13T07:31:23.643Z,3.13
2017-12-13T07:33:51.464Z,2.77
2017-12-13T07:36:19.279Z,2.93
2017-12-13T07:38:47.088Z,2.30
2017-12-13T07:41:14.898Z,2.93
2017-12-13T07:43:42.773Z,2.90
2017-12-13T07:46:10.613Z,2.50
2017-12-13T07:48:38.472Z,2.97
2017-12-13T07:51:07.113Z,3.20
2017-12-13T07:53:34.927Z,3.10
2017-12-13T07:56:03.550Z,3.10
2017-12-13T07:58:31.432Z,3.80
2017-12-13T08:00:59.272Z,3.53
2017-12-13T08:03:27.051Z,3.70
2017-12-13T08:05:54.893Z,3.60
2017-12-13T08:08:22.783Z,3.93
2017-12-13T08:10:50.611Z,4.50
2017-12-13T08:13:18.565Z,4.10
2017-12-13T08:15:47.162Z,6.27
2017-12-13T08:18:15.724Z,5.40
2017-12-13T08:20:43.570Z,4.10
2017-12-13T08:23:11.352Z,4.53
2017-12-13T08:25:39.258Z,4.40
2017-12-13T08:28:07.097Z,3.90
2017-12-13T08:30:35.686Z,3.60
2017-12-13T08:33:04.280Z,3.93
2017-12-13T08:35:32.125Z,4.60
2017-12-13T08:38:00.731Z,3.00
2017-12-13T08:40:28.591Z,3.03
2017-12-13T08:42:57.190Z,3.53
2017-12-13T08:45:24.987Z,2.90
2017-12-13T08:47:52.858Z,3.20
2017-12-13T08:50:20.696Z,3.10
2017-12-13T08:52:48.564Z,3.30
2017-12-13T08:55:16.382Z,2.90
2017-12-13T08:57:44.963Z,2.67
2017-12-13T09:00:12.835Z,2.60
2017-12-13T09:02:41.457Z,2.80
2017-12-13T09:05:09.291Z,2.57
2017-12-13T09:07:37.932Z,3.63
2017-12-13T09:10:05.771Z,3.70
2017-12-13T09:12:33.580Z,4.60
2017-12-13T09:15:01.383Z,3.60
2017-12-13T09:17:29.266Z,4.30
2017-12-13T09:19:57.069Z,3.20
2017-12-13T09:22:24.892Z,3.70
2017-12-13T09:24:52.764Z,3.77
2017-12-13T09:27:20.612Z,4.13
2017-12-13T09:29:48.433Z,4.10
2017-12-13T09:32:16.243Z,3.60
2017-12-13T09:34:44.107Z,2.63
2017-12-13T09:37:11.928Z,3.00
2017-12-13T09:39:39.800Z,3.40
2017-12-13T09:42:07.629Z,3.00
2017-12-13T09:44:35.503Z,2.33
2017-12-13T09:47:03.387Z,2.70
2017-12-13T09:49:31.209Z,2.17
2017-12-13T09:51:59.024Z,2.83
2017-12-13T09:54:26.859Z,2.33
2017-12-13T09:56:54.752Z,2.90
2017-12-13T09:59:22.626Z,2.30
2017-12-13T10:01:50.490Z,2.57
2017-12-13T10:04:18.624Z,2.93
2017-12-13T10:06:46.464Z,2.60
2017-12-13T10:09:14.273Z,3.00
2017-12-13T10:11:42.176Z,2.80
2017-12-13T10:14:10.952Z,3.20
2017-12-13T10:16:38.784Z,3.83
2017-12-13T10:19:06.787Z,2.07
2017-12-13T10:21:34.620Z,1.80
2017-12-13T10:24:02.455Z,2.77
2017-12-13T10:26:31.078Z,1.63
2017-12-13T10:28:58.998Z,2.17
2017-12-13T10:31:26.862Z,2.10
2017-12-13T10:33:54.722Z,1.40
2017-12-13T10:36:23.339Z,1.67
2017-12-13T10:38:51.391Z,1.80
2017-12-13T10:41:19.173Z,1.83
2017-12-13T10:43:46.969Z,1.37
2017-12-13T10:46:14.790Z,1.20
2017-12-13T10:48:42.644Z,1.33
2017-12-13T10:51:10.476Z,1.20
2017-12-13T10:53:38.330Z,1.20
2017-12-13T10:56:06.124Z,2.00
2017-12-13T10:58:34.687Z,1.73
2017-12-13T11:01:02.536Z,1.70
2017-12-13T11:03:30.395Z,3.07
2017-12-13T11:05:58.490Z,1.73
2017-12-13T11:08:26.326Z,2.10
2017-12-13T11:10:54.895Z,2.47
2017-12-13T11:13:22.695Z,1.40
2017-12-13T11:15:50.618Z,1.53
2017-12-13T11:18:18.419Z,1.37
2017-12-13T11:20:46.311Z,1.60
2017-12-13T11:23:14.180Z,2.10
2017-12-13T11:25:41.996Z,1.60
2017-12-13T11:28:10.008Z,1.60
2017-12-13T11:30:37.924Z,1.50
2017-12-13T11:33:05.966Z,1.40
2017-12-13T11:35:34.556Z,1.47
2017-12-13T11:38:03.194Z,1.53
2017-12-13T11:40:30.987Z,1.10
2017-12-13T11:42:58.800Z,1.47
2017-12-13T11:45:26.620Z,1.37
2017-12-13T11:47:54.480Z,1.23
2017-12-13T11:50:22.415Z,1.30
2017-12-13T11:52:50.246Z,1.50
2017-12-13T11:55:18.087Z,1.23
2017-12-13T11:57:46.846Z,1.80
2017-12-13T12:00:14.779Z,1.40
2017-12-13T12:02:42.567Z,1.67
2017-12-13T12:05:10.394Z,1.60
2017-12-13T12:07:38.264Z,1.43
2017-12-13T12:10:06.089Z,1.40
2017-12-13T12:12:33.951Z,1.73
2017-12-13T12:15:01.759Z,1.20
2017-12-13T12:17:30.346Z,1.73
2017-12-13T12:19:58.212Z,1.00
2017-12-13T12:22:26.004Z,1.30
2017-12-13T12:24:53.801Z,1.20
2017-12-13T12:27:22.424Z,1.93
2017-12-13T12:29:50.233Z,1.73
2017-12-13T12:32:18.206Z,1.37
2017-12-13T12:34:46.087Z,2.07
2017-12-13T12:37:14.050Z,1.60
2017-12-13T12:39:41.867Z,1.37
2017-12-13T12:42:09.659Z,1.60
2017-12-13T12:44:37.442Z,1.80
2017-12-13T12:47:05.251Z,1.10
2017-12-13T12:49:33.100Z,1.53
2017-12-13T12:52:01.691Z,1.30
2017-12-13T12:54:30.326Z,1.27
2017-12-13T12:56:58.140Z,1.47
2017-12-13T12:59:26.711Z,1.50
2017-12-13T13:01:55.265Z,0.90
2017-12-13T13:04:23.057Z,1.40
2017-12-13T13:06:51.699Z,1.07
2017-12-13T13:09:19.575Z,1.13
2017-12-13T13:11:47.410Z,1.57
2017-12-13T13:14:15.287Z,0.90
2017-12-13T13:16:43.155Z,0.90
2017-12-13T13:19:11.099Z,1.37
2017-12-13T13:21:38.928Z,1.90
2017-12-13T13:24:06.811Z,2.67
2017-12-13T13:26:34.750Z,1.07
2017-12-13T13:29:02.592Z,1.27
2017-12-13T13:31:30.416Z,1.37
2017-12-13T13:33:59.014Z,1.40
2017-12-13T13:36:26.828Z,1.10
2017-12-13T13:38:54.684Z,1.30
2017-12-13T13:41:22.463Z,1.53
2017-12-13T13:43:50.258Z,1.30
2017-12-13T13:46:20.927Z,1.67
2017-12-13T13:48:48.819Z,1.40
2017-12-13T13:51:16.645Z,1.10
2017-12-13T13:53:44.460Z,1.07
2017-12-13T13:56:12.238Z,1.00
2017-12-13T13:58:40.849Z,1.00
2017-12-13T14:01:08.667Z,1.27
2017-12-13T14:03:36.513Z,1.03
2017-12-13T14:06:04.355Z,1.40
2017-12-13T14:08:32.127Z,1.60
2017-12-13T14:10:59.921Z,1.17
2017-12-13T14:13:27.783Z,1.40
2017-12-13T14:15:55.572Z,1.50
2017-12-13T14:18:23.404Z,1.40
2017-12-13T14:20:51.319Z,2.10
2017-12-13T14:23:19.185Z,1.67
2017-12-13T14:25:47.776Z,1.40
2017-12-13T14:28:15.805Z,1.60
2017-12-13T14:30:43.640Z,1.37
2017-12-13T14:33:11.464Z,1.77
2017-12-13T14:35:40.079Z,1.67
2017-12-13T14:38:07.860Z,2.27
2017-12-13T14:40:35.940Z,2.83
2017-12-13T14:43:03.819Z,1.70
2017-12-13T14:45:31.636Z,1.60
2017-12-13T14:47:59.473Z,1.47
2017-12-13T14:50:28.142Z,1.70
2017-12-13T14:52:56.841Z,1.37
2017-12-13T14:55:24.699Z,1.40
2017-12-13T14:57:52.616Z,2.03
2017-12-13T15:00:20.594Z,1.40
2017-12-13T15:02:48.416Z,2.07
2017-12-13T15:05:17.020Z,1.57
2017-12-13T15:07:44.894Z,1.50
2017-12-13T15:10:12.718Z,1.10
2017-12-13T15:12:40.533Z,1.90
2017-12-13T15:15:08.349Z,1.53
2017-12-13T15:17:36.156Z,1.83
2017-12-13T15:20:03.989Z,2.20
2017-12-13T15:22:31.790Z,2.27
2017-12-13T15:24:59.642Z,1.77
2017-12-13T15:27:27.461Z,1.43
2017-12-13T15:29:55.242Z,1.93
2017-12-13T15:32:23.035Z,1.40
2017-12-13T15:34:50.896Z,1.03
2017-12-13T15:37:18.794Z,1.50
2017-12-13T15:39:46.582Z,1.40
2017-12-13T15:42:14.416Z,1.33
2017-12-13T15:44:42.236Z,1.90
2017-12-13T15:47:10.138Z,2.00
2017-12-13T15:49:38.083Z,1.50
2017-12-13T15:52:06.075Z,1.60
2017-12-13T15:54:33.903Z,1.40
2017-12-13T15:57:01.676Z,1.63
2017-12-13T15:59:29.558Z,1.67
2017-12-13T16:01:58.123Z,1.50
2017-12-13T16:04:25.900Z,1.50
2017-12-13T16:06:54.452Z,1.20
2017-12-13T16:09:22.249Z,1.50
2017-12-13T16:11:50.814Z,1.60
2017-12-13T16:14:18.676Z,1.23
2017-12-13T16:16:47.227Z,1.60
2017-12-13T16:19:15.031Z,1.73
2017-12-13T16:21:42.927Z,1.90
2017-12-13T16:24:10.755Z,1.87
2017-12-13T16:26:39.480Z,2.00
2017-12-13T16:29:07.363Z,1.63
2017-12-13T16:31:35.208Z,2.70
2017-12-13T16:34:03.071Z,2.47
2017-12-13T16:36:30.896Z,2.27
2017-12-13T16:38:58.842Z,2.60
2017-12-13T16:41:26.647Z,2.40
2017-12-13T16:43:54.478Z,2.30
2017-12-13T16:46:22.303Z,2.90
2017-12-13T16:48:50.135Z,2.63
2017-12-13T16:51:18.020Z,2.13
2017-12-13T16:53:46.604Z,2.80
2017-12-13T16:56:14.467Z,2.70
2017-12-13T16:58:43.076Z,2.60
2017-12-13T17:01:11.009Z,2.27
2017-12-13T17:03:38.835Z,2.30
2017-12-13T17:06:06.755Z,3.17
2017-12-13T17:08:35.495Z,2.90
2017-12-13T17:11:03.411Z,3.60
2017-12-13T17:13:31.312Z,4.47
2017-12-13T17:15:59.206Z,3.03
2017-12-13T17:18:27.115Z,2.10
2017-12-13T17:20:55.720Z,2.80
2017-12-13T17:23:23.556Z,2.60
2017-12-13T17:25:52.230Z,3.13
2017-12-13T17:28:20.855Z,3.33
2017-12-13T17:30:50.214Z,3.60
2017-12-13T17:33:19.795Z,2.07
2017-12-13T17:35:47.821Z,1.80
2017-12-13T17:38:15.676Z,1.83
2017-12-13T17:40:44.347Z,2.03
2017-12-13T17:43:12.965Z,2.77
2017-12-13T17:45:40.820Z,2.13
2017-12-13T17:48:08.639Z,2.10
2017-12-13T17:50:36.609Z,2.57
2017-12-13T17:53:04.534Z,2.23
2017-12-13T17:55:32.363Z,2.70
2017-12-13T17:58:01.025Z,1.97
2017-12-13T18:00:28.887Z,1.60
2017-12-13T18:02:56.715Z,2.50
2017-12-13T18:05:24.615Z,1.77
2017-12-13T18:07:52.411Z,1.70
2017-12-13T18:10:21.039Z,2.20
2017-12-13T18:12:48.886Z,2.00
2017-12-13T18:15:16.764Z,2.30
2017-12-13T18:17:44.600Z,1.77
2017-12-13T18:20:13.203Z,2.73
2017-12-13T18:22:41.089Z,2.53
2017-12-13T18:25:08.946Z,2.90
2017-12-13T18:27:36.842Z,2.50
2017-12-13T18:30:04.720Z,2.27
2017-12-13T18:32:32.594Z,1.80
2017-12-13T18:35:00.467Z,2.73
2017-12-13T18:37:29.123Z,2.30
2017-12-13T18:39:57.005Z,2.43
2017-12-13T18:42:24.873Z,2.77
2017-12-13T18:44:52.783Z,2.67
2017-12-13T18:47:20.613Z,1.73
2017-12-13T18:49:48.428Z,2.00
2017-12-13T18:52:16.304Z,2.00
2017-12-13T18:54:44.207Z,1.90
2017-12-13T18:57:12.108Z,1.87
2017-12-13T18:59:40.770Z,1.63
2017-12-13T19:02:08.624Z,1.40
2017-12-13T19:04:36.504Z,1.70
2017-12-13T19:07:05.782Z,2.40
2017-12-13T19:09:33.765Z,1.20
2017-12-13T19:12:02.445Z,1.83
2017-12-13T19:14:30.327Z,1.43
2017-12-13T19:16:58.149Z,2.00
2017-12-13T19:19:25.980Z,2.30
2017-12-13T19:21:54.643Z,2.37
2017-12-13T19:24:23.252Z,2.67
2017-12-13T19:26:51.039Z,2.20
2017-12-13T19:29:18.856Z,1.57
2017-12-13T19:31:47.413Z,2.50
2017-12-13T19:34:15.221Z,2.80
2017-12-13T19:36:43.820Z,1.70
2017-12-13T19:39:11.707Z,3.00
2017-12-13T19:41:39.489Z,2.80
2017-12-13T19:44:07.356Z,3.33
2017-12-13T19:46:35.214Z,3.20
2017-12-13T19:49:02.960Z,3.07
2017-12-13T19:51:30.694Z,3.20
2017-12-13T19:53:59.252Z,3.60
2017-12-13T19:56:27.016Z,4.00
2017-12-13T19:58:54.768Z,3.67
2017-12-13T20:01:22.599Z,4.07
2017-12-13T20:03:50.376Z,9.00
2017-12-13T20:06:18.190Z,5.63
2017-12-13T20:08:46.731Z,4.10
2017-12-13T20:11:14.483Z,3.33
2017-12-13T20:13:42.275Z,2.93
2017-12-13T20:16:10.061Z,3.63
2017-12-13T20:18:38.686Z,3.93
2017-12-13T20:21:06.508Z,4.30
2017-12-13T20:23:35.078Z,5.87
2017-12-13T20:26:02.852Z,4.80
2017-12-13T20:28:31.438Z,4.63
2017-12-13T20:31:00.051Z,3.37
2017-12-13T20:33:27.864Z,4.07
2017-12-13T20:35:59.088Z,3.37
2017-12-13T20:38:26.940Z,3.70
2017-12-13T20:40:54.723Z,4.00
2017-12-13T20:43:22.551Z,4.13
2017-12-13T20:45:50.304Z,2.77
2017-12-13T20:48:18.864Z,2.70
2017-12-13T20:50:46.675Z,2.53
2017-12-13T20:53:14.515Z,2.20
2017-12-13T20:55:43.032Z,2.17
2017-12-13T20:58:10.766Z,2.17
2017-12-13T21:00:39.339Z,2.47
2017-12-13T21:03:07.955Z,2.80
2017-12-13T21:05:35.752Z,2.80
2017-12-13T21:08:03.502Z,3.50
2017-12-13T21:10:31.343Z,3.47
2017-12-13T21:12:59.192Z,3.93
2017-12-13T21:15:27.703Z,3.23
2017-12-13T21:17:55.469Z,3.57
2017-12-13T21:20:23.249Z,3.57
2017-12-13T21:22:51.005Z,3.80
2017-12-13T21:25:18.800Z,3.20
2017-12-13T21:27:46.564Z,2.80
2017-12-13T21:30:14.415Z,2.87
2017-12-13T21:32:42.234Z,2.40
2017-12-13T21:35:10.008Z,4.73
2017-12-13T21:37:38.486Z,3.90
2017-12-13T21:40:06.294Z,3.30
2017-12-13T21:42:34.136Z,3.20
2017-12-13T21:45:01.901Z,2.40
2017-12-13T21:47:29.672Z,3.73
2017-12-13T21:49:57.469Z,2.13
2017-12-13T21:52:25.252Z,3.80
2017-12-13T21:54:53.844Z,3.70
2017-12-13T21:57:21.704Z,3.37
2017-12-13T21:59:50.297Z,10.33
2017-12-13T22:02:18.106Z,6.50
2017-12-13T22:04:45.868Z,4.43
2017-12-13T22:07:13.658Z,2.90
2017-12-13T22:09:41.452Z,3.07
2017-12-13T22:12:09.337Z,3.37
2017-12-13T22:14:37.186Z,3.73
2017-12-13T22:17:06.807Z,2.40
2017-12-13T22:19:34.634Z,2.40
2017-12-13T22:22:03.199Z,2.20
2017-12-13T22:24:30.963Z,1.80
2017-12-13T22:26:58.709Z,2.70
2017-12-13T22:29:26.532Z,2.00
2017-12-13T22:31:55.042Z,2.73
2017-12-13T22:34:22.818Z,2.17
2017-12-13T22:36:50.583Z,2.20
2017-12-13T22:39:18.347Z,2.00
2017-12-13T22:41:46.212Z,3.40
2017-12-13T22:44:14.053Z,2.73
2017-12-13T22:46:41.876Z,1.70
2017-12-13T22:49:10.452Z,2.30
2017-12-13T22:51:38.231Z,1.73
2017-12-13T22:54:06.778Z,2.03
2017-12-13T22:56:34.539Z,1.80
2017-12-13T22:59:02.306Z,1.80
2017-12-13T23:01:30.181Z,2.00
2017-12-13T23:03:58.042Z,1.63
2017-12-13T23:06:25.872Z,1.70
2017-12-13T23:08:53.632Z,1.77
2017-12-13T23:11:21.405Z,2.10
2017-12-13T23:13:49.204Z,1.80
2017-12-13T23:16:16.961Z,2.00
2017-12-13T23:18:44.815Z,2.00
2017-12-13T23:21:12.599Z,2.70
2017-12-13T23:23:40.375Z,2.33
2017-12-13T23:26:08.183Z,2.07
2017-12-13T23:28:36.063Z,2.20
2017-12-13T23:31:03.820Z,2.10
2017-12-13T23:33:31.598Z,2.10
2017-12-13T23:35:59.377Z,1.83
2017-12-13T23:38:27.126Z,1.77
2017-12-13T23:40:54.971Z,1.70
2017-12-13T23:43:22.736Z,2.30
2017-12-13T23:45:50.547Z,2.00
2017-12-13T23:48:18.332Z,1.87
2017-12-13T23:50:46.920Z,2.20
2017-12-13T23:53:15.613Z,2.03
2017-12-13T23:55:44.197Z,4.40
2017-12-13T23:58:11.968Z,3.03
